Rawlins, WY (82301)

5:06 AM MDT on July 26, 2016 (GMT -0600)
Highland Towne | | Change Station

Elev 6831 ft 41.82 °N, 107.22 °W | Updated 10 minutes ago

Clear
Clear
59.7 °F
Feels Like 59.7 °F
N
0.0
Wind Variable Wind from SW

Today
High -- | Low -- °F
--% Chance of Precip.
Yesterday
High -- | Low -- °F
Precip. -- in
Pressure 29.93 in
Visibility 10.0 miles
Clouds Clear
Dew Point 33 °F
Humidity 37%
Rainfall 0.00 in
Snow Depth Not available.
5:57 AM 8:32 PM
Waning Gibbous, 56% visible
METAR KRWL 261053Z AUTO 00000KT 10SM CLR 14/M01 A3025 RMK AO2 SLP133 T01391011
Pressure 29.93 in
Visibility 10.0 miles
Clouds Clear
Dew Point 33 °F
Humidity 37%
Rainfall 0.00 in
Snow Depth Not available.
5:57 AM 8:32 PM
Waning Gibbous, 56% visible
METAR KRWL 261053Z AUTO 00000KT 10SM CLR 14/M01 A3025 RMK AO2 SLP133 T01391011

10-Day Weather Forecast

Almanac

Astronomy

Jul. 26, 2016 Rise Set
Actual Time
Civil Twilight
Nautical Twilight
Astronomical Twilight
Moon
Length of Visible Light
Length of Day
Tomorrow will be .
, % of the Moon is Illuminated

Today's Extremes

State Highs State Lows

Community

WunderPhotos

Upload Photos

1,927,571 photos uploaded!

WunderBlog® & News

Nearby

Air Quality

  Air Quality AQ Index Pollutant
Not available.

Snow Depth

Station Depth Elevation

Earthquake Activity

City Distance Mag. Time & Date
Minimum magnitude displayed is 2.5.

Coastal Water Temperatures

Place Temperature

Stations

Nearby Weather Stations

Station Location Temp. Windchill Dew Point Humidity Wind Precip. Elev Updated Type
                   

Watches & Warnings

There are currently no watches in effect.